Time;durP1;ratioP1;P1;durP2;ratioP2;P2;SDS_P1;SDS_P2;PMS_P1;PMS_P2;Temp;Humidity;BMP_temperature;BMP_pressure;BME280_temperature;BME280_humidity;BME280_pressure;Samples;Min_cycle;Max_cycle;Signal;HPM_P1;HPM_P2
2021/08/11 00:01:50;;;;;;;9.98;5.18;;;;;;;26.78;48.29;99261.13;5048579;28;20102;-48
2021/08/11 00:04:16;;;;;;;8.68;4.85;;;;;;;26.70;48.39;99267.00;5051959;28;20048;-48
2021/08/11 00:06:43;;;;;;;8.82;4.57;;;;;;;26.74;48.42;99265.81;5043251;28;20050;-47
2021/08/11 00:09:11;;;;;;;9.68;4.82;;;;;;;26.75;48.44;99272.00;5036475;28;20557;-48
2021/08/11 00:11:38;;;;;;;9.60;5.10;;;;;;;26.75;48.55;99272.00;5044220;28;20573;-48
2021/08/11 00:14:05;;;;;;;12.57;4.55;;;;;;;26.75;48.53;99270.19;5053075;28;20107;-48
2021/08/11 00:16:32;;;;;;;9.05;4.63;;;;;;;26.72;48.51;99270.44;5054122;28;20048;-48
2021/08/11 00:18:58;;;;;;;9.52;4.60;;;;;;;26.69;48.67;99257.28;5040209;28;20492;-48
2021/08/11 00:21:25;;;;;;;9.88;4.72;;;;;;;26.69;48.80;99273.31;5054517;28;20044;-49
2021/08/11 00:23:52;;;;;;;8.32;4.63;;;;;;;26.70;48.64;99272.38;5053910;28;20049;-48
2021/08/11 00:26:20;;;;;;;9.60;4.40;;;;;;;26.71;48.60;99266.03;5048710;28;20538;-48
2021/08/11 00:28:47;;;;;;;9.45;4.80;;;;;;;26.71;48.56;99268.72;5048390;28;20557;-48
2021/08/11 00:31:13;;;;;;;8.35;4.40;;;;;;;26.70;48.45;99261.66;5036683;28;20053;-47
2021/08/11 00:33:40;;;;;;;8.38;4.30;;;;;;;26.74;48.34;99271.16;5033925;28;20045;-48
2021/08/11 00:36:07;;;;;;;8.90;4.05;;;;;;;26.68;48.37;99282.31;5047653;28;20048;-48
2021/08/11 00:38:33;;;;;;;8.45;4.57;;;;;;;26.69;48.10;99281.31;5046785;28;20462;-49
2021/08/11 00:41:00;;;;;;;8.77;4.70;;;;;;;26.66;48.21;99285.09;5050275;28;20045;-48
2021/08/11 00:43:28;;;;;;;11.40;4.43;;;;;;;26.65;48.01;99291.38;5050908;28;20037;-47
2021/08/11 00:45:55;;;;;;;8.10;4.45;;;;;;;26.58;48.16;99287.44;5049094;28;20049;-47
2021/08/11 00:48:25;;;;;;;10.32;4.45;;;;;;;26.59;48.11;99290.97;5053263;28;20045;-48
2021/08/11 00:50:52;;;;;;;7.50;4.00;;;;;;;26.60;48.27;99285.53;5053553;28;20037;-48
2021/08/11 00:53:22;;;;;;;9.13;4.13;;;;;;;26.57;48.25;99300.91;5053609;28;20041;-47
2021/08/11 00:55:50;;;;;;;8.10;4.40;;;;;;;26.56;48.29;99291.16;5045729;28;20045;-48
2021/08/11 00:58:16;;;;;;;8.82;4.05;;;;;;;26.56;48.11;99296.50;5053356;28;20049;-47
2021/08/11 01:00:46;;;;;;;8.48;4.50;;;;;;;26.57;48.05;99292.88;5053219;28;20487;-49
2021/08/11 01:03:15;;;;;;;8.85;4.00;;;;;;;26.58;47.87;99291.91;5053329;28;20078;-48
2021/08/11 01:05:42;;;;;;;6.25;4.00;;;;;;;26.52;48.10;99293.19;5053493;28;20053;-48
2021/08/11 01:08:09;;;;;;;8.27;4.40;;;;;;;26.55;48.09;99297.47;5052812;28;20083;-49
2021/08/11 01:10:35;;;;;;;10.77;4.20;;;;;;;26.59;47.78;99288.31;5053336;28;20099;-47
2021/08/11 01:13:02;;;;;;;9.15;4.30;;;;;;;26.54;48.08;99280.59;5053063;28;20048;-47
2021/08/11 01:15:29;;;;;;;10.32;4.10;;;;;;;26.57;47.85;99284.84;5052550;28;20071;-48
2021/08/11 01:17:57;;;;;;;7.30;3.95;;;;;;;26.57;47.65;99282.19;5050039;28;20045;-48
2021/08/11 01:20:24;;;;;;;9.90;4.07;;;;;;;26.55;47.73;99284.13;5052576;28;20106;-48
2021/08/11 01:22:54;;;;;;;8.15;4.03;;;;;;;26.52;47.82;99277.16;5052876;28;20446;-48
2021/08/11 01:25:24;;;;;;;8.02;4.20;;;;;;;26.53;47.74;99282.41;5053126;28;20045;-47
2021/08/11 01:28:02;;;;;;;7.50;4.00;;;;;;;26.52;47.58;99291.38;5053231;28;20044;-48
2021/08/11 01:30:31;;;;;;;7.35;3.90;;;;;;;26.56;47.56;99291.16;5052373;28;20103;-47
2021/08/11 01:33:27;;;;;;;8.95;4.00;;;;;;;26.50;47.69;99290.66;5052961;28;20094;-47
2021/08/11 01:35:59;;;;;;;8.15;4.00;;;;;;;26.47;47.83;99285.50;5014098;28;20053;-47
2021/08/11 01:38:26;;;;;;;6.82;3.75;;;;;;;26.42;47.84;99284.97;5045700;28;20045;-48
2021/08/11 01:40:55;;;;;;;8.60;3.92;;;;;;;26.38;47.69;99278.13;5051920;28;20446;-48
2021/08/11 01:43:23;;;;;;;8.50;4.00;;;;;;;26.37;47.92;99278.28;5048878;28;20044;-48
2021/08/11 01:45:49;;;;;;;10.15;4.32;;;;;;;26.39;47.86;99277.19;5035613;28;20045;-48
2021/08/11 01:48:17;;;;;;;7.93;4.10;;;;;;;26.39;47.69;99271.00;5051045;28;20106;-47
2021/08/11 01:50:45;;;;;;;8.65;3.90;;;;;;;26.37;47.85;99278.28;5039774;28;20049;-48
2021/08/11 01:53:17;;;;;;;6.68;3.72;;;;;;;26.35;47.89;99281.06;5042419;28;20049;-47
2021/08/11 01:55:44;;;;;;;10.68;4.32;;;;;;;26.38;47.71;99287.97;5049900;28;20049;-47
2021/08/11 01:58:11;;;;;;;8.20;4.30;;;;;;;26.38;47.60;99288.81;5050856;28;20099;-48
2021/08/11 02:00:37;;;;;;;7.55;3.75;;;;;;;26.37;47.71;99279.13;5041678;28;20057;-47
2021/08/11 02:03:04;;;;;;;8.85;4.20;;;;;;;26.36;47.73;99274.72;5042541;28;20056;-47
2021/08/11 02:05:31;;;;;;;7.45;3.90;;;;;;;26.33;47.71;99277.63;5049250;28;20044;-47
2021/08/11 02:07:58;;;;;;;8.20;4.00;;;;;;;26.35;48.01;99274.81;5032767;28;20053;-47
2021/08/11 02:10:27;;;;;;;8.73;4.18;;;;;;;26.35;47.55;99286.38;5037344;28;20091;-48
2021/08/11 02:12:54;;;;;;;7.80;3.70;;;;;;;26.32;47.60;99281.25;5038152;28;20049;-47
2021/08/11 02:15:21;;;;;;;8.75;3.97;;;;;;;26.32;47.69;99281.25;5041042;28;20049;-48
2021/08/11 02:17:48;;;;;;;6.47;3.85;;;;;;;26.31;47.83;99290.25;5033407;28;20111;-48
2021/08/11 02:20:15;;;;;;;10.38;3.97;;;;;;;26.29;47.76;99292.16;5032361;28;20057;-48
2021/08/11 02:22:42;;;;;;;8.85;3.97;;;;;;;26.29;47.79;99295.69;5049583;28;20041;-47
2021/08/11 02:25:10;;;;;;;7.60;3.80;;;;;;;26.31;47.72;99295.59;5042167;28;20041;-47
2021/08/11 02:27:41;;;;;;;7.57;4.00;;;;;;;26.27;47.68;99294.94;5039295;28;20044;-48
2021/08/11 02:30:10;;;;;;;7.88;4.32;;;;;;;26.28;47.72;99298.47;5039913;28;20057;-47
2021/08/11 02:32:39;;;;;;;6.25;3.50;;;;;;;26.27;47.58;99296.78;5033171;28;20045;-48
2021/08/11 02:35:09;;;;;;;7.60;3.80;;;;;;;26.28;47.68;99290.44;5044509;28;20123;-47
2021/08/11 02:37:43;;;;;;;8.05;3.72;;;;;;;26.28;47.60;99283.28;5043786;28;20098;-47
2021/08/11 02:40:11;;;;;;;7.25;3.72;;;;;;;26.26;47.56;99279.03;5047897;28;20419;-48
2021/08/11 02:42:41;;;;;;;12.10;4.38;;;;;;;26.25;47.73;99277.28;5048263;28;20041;-47
2021/08/11 02:45:10;;;;;;;8.98;3.75;;;;;;;26.26;47.71;99276.34;5036713;28;20054;-47
2021/08/11 02:47:36;;;;;;;8.98;3.75;;;;;;;26.22;47.66;99274.84;5050958;28;20067;-48
2021/08/11 02:50:04;;;;;;;8.93;4.28;;;;;;;26.20;47.86;99282.13;5031826;28;20103;-48
2021/08/11 02:52:30;;;;;;;8.65;3.75;;;;;;;26.20;47.70;99282.13;5048513;28;20094;-47
2021/08/11 02:54:57;;;;;;;9.57;4.28;;;;;;;26.21;47.77;99289.16;5051589;28;20094;-48
2021/08/11 02:57:24;;;;;;;9.43;4.18;;;;;;;26.19;47.75;99285.75;5040627;28;20100;-48
2021/08/11 02:59:52;;;;;;;9.68;3.90;;;;;;;26.18;47.69;99284.91;5044856;28;20037;-47
2021/08/11 03:02:19;;;;;;;5.20;3.45;;;;;;;26.20;47.51;99288.31;5049458;28;20045;-47
2021/08/11 03:04:45;;;;;;;8.35;3.97;;;;;;;26.13;47.87;99282.56;5051530;28;20053;-47
2021/08/11 03:07:12;;;;;;;9.57;3.90;;;;;;;26.15;47.65;99278.91;5051381;28;20119;-47
2021/08/11 03:09:39;;;;;;;8.93;3.92;;;;;;;26.17;47.52;99283.16;5051333;28;20110;-48
2021/08/11 03:12:08;;;;;;;8.15;3.92;;;;;;;26.15;47.33;99294.94;5050719;28;20385;-48
2021/08/11 03:14:34;;;;;;;11.95;3.90;;;;;;;26.14;47.54;99288.75;5046670;28;20048;-47
2021/08/11 03:17:06;;;;;;;6.85;3.67;;;;;;;26.15;47.40;99290.44;5047041;28;20091;-48
2021/08/11 03:19:33;;;;;;;6.40;3.60;;;;;;;26.13;47.59;99301.25;5039272;28;20053;-47
2021/08/11 03:21:59;;;;;;;8.07;3.78;;;;;;;26.18;47.41;99305.41;5039555;28;20060;-48
2021/08/11 03:24:26;;;;;;;7.43;3.80;;;;;;;26.16;47.47;99310.84;5049031;28;20511;-47
2021/08/11 03:26:53;;;;;;;7.00;3.75;;;;;;;26.17;47.36;99303.69;5049696;28;20049;-48
2021/08/11 03:29:19;;;;;;;6.63;3.85;;;;;;;26.15;47.20;99310.94;5047856;28;20098;-47
2021/08/11 03:31:46;;;;;;;7.15;3.67;;;;;;;26.16;47.30;99318.03;5051488;28;20103;-48
2021/08/11 03:34:14;;;;;;;10.88;4.10;;;;;;;26.15;47.46;99321.63;5051116;28;20053;-47
2021/08/11 03:36:41;;;;;;;7.97;3.90;;;;;;;26.13;47.44;99324.41;5051067;28;20103;-47
2021/08/11 03:39:08;;;;;;;7.20;3.70;;;;;;;26.11;47.16;99323.66;5050839;28;20465;-48
2021/08/11 03:41:35;;;;;;;6.72;3.67;;;;;;;26.07;47.29;99331.03;5040236;28;20422;-47
2021/08/11 03:44:01;;;;;;;9.32;3.92;;;;;;;26.11;47.36;99326.31;5050871;28;20102;-48
2021/08/11 03:46:30;;;;;;;8.13;3.67;;;;;;;26.07;47.29;99319.50;5050763;28;20037;-49
2021/08/11 03:48:57;;;;;;;7.40;4.07;;;;;;;25.93;47.43;99307.94;5048349;28;20060;-47
2021/08/11 03:51:25;;;;;;;7.32;3.80;;;;;;;25.99;47.46;99311.16;5043535;28;20049;-47
2021/08/11 03:53:51;;;;;;;8.32;3.80;;;;;;;26.02;47.47;99301.13;5050917;28;20480;-47
2021/08/11 03:56:18;;;;;;;9.40;3.85;;;;;;;26.01;47.51;99303.91;5049269;28;20037;-47
2021/08/11 03:58:45;;;;;;;8.55;4.10;;;;;;;26.01;47.54;99306.56;5050910;28;20473;-49
2021/08/11 04:01:11;;;;;;;9.15;3.88;;;;;;;26.03;47.40;99318.84;5050280;28;20095;-48
2021/08/11 04:03:38;;;;;;;7.47;3.78;;;;;;;26.04;47.44;99315.22;5043968;28;20487;-47
2021/08/11 04:06:05;;;;;;;8.27;3.60;;;;;;;26.02;47.45;99305.63;5054272;28;20053;-47
2021/08/11 04:08:33;;;;;;;7.25;3.85;;;;;;;26.02;47.58;99305.63;5054335;28;20483;-48
2021/08/11 04:11:00;;;;;;;10.95;3.92;;;;;;;26.05;47.62;99306.25;5053883;28;20753;-48
2021/08/11 04:13:26;;;;;;;7.95;3.70;;;;;;;26.04;47.54;99298.38;5054259;28;20095;-47
2021/08/11 04:15:53;;;;;;;9.30;4.10;;;;;;;26.03;47.44;99308.16;5053912;28;20503;-48
2021/08/11 04:18:20;;;;;;;10.02;3.60;;;;;;;26.01;47.31;99312.75;5052892;28;20567;-49
2021/08/11 04:20:46;;;;;;;10.88;4.07;;;;;;;25.92;47.30;99305.41;5052400;28;20049;-47
2021/08/11 04:23:13;;;;;;;9.18;3.83;;;;;;;25.86;47.47;99308.44;5053740;28;20041;-47
2021/08/11 04:25:42;;;;;;;8.95;4.30;;;;;;;25.82;47.35;99301.59;5053467;28;20040;-47
2021/08/11 04:28:08;;;;;;;8.38;4.00;;;;;;;25.85;47.59;99304.06;5053241;28;20045;-48
2021/08/11 04:30:35;;;;;;;7.35;3.95;;;;;;;25.90;47.36;99299.25;5053546;28;20052;-48
2021/08/11 04:33:02;;;;;;;7.88;4.18;;;;;;;25.89;47.28;99301.06;5054198;28;20049;-48
2021/08/11 04:35:29;;;;;;;8.75;3.90;;;;;;;25.91;47.38;99298.34;5053615;28;20095;-47
2021/08/11 04:37:56;;;;;;;10.68;3.80;;;;;;;25.89;47.53;99311.75;5054025;28;20103;-47
2021/08/11 04:40:23;;;;;;;8.60;3.80;;;;;;;25.80;47.90;99324.88;5053365;28;20107;-47
2021/08/11 04:42:51;;;;;;;9.77;4.15;;;;;;;25.79;47.75;99315.16;5053335;28;20049;-47
2021/08/11 04:45:18;;;;;;;8.10;3.65;;;;;;;25.76;47.74;99302.03;5053511;28;20045;-47
2021/08/11 04:47:44;;;;;;;9.50;4.00;;;;;;;25.74;47.95;99305.66;5053654;28;20045;-47
2021/08/11 04:50:11;;;;;;;13.00;5.13;;;;;;;25.80;48.03;99311.53;5053018;28;20042;-42
2021/08/11 04:52:38;;;;;;;8.95;3.85;;;;;;;25.81;48.09;99314.09;5037292;28;20443;-43
2021/08/11 04:55:05;;;;;;;12.75;4.22;;;;;;;25.78;48.24;99319.63;5034161;28;20045;-43
2021/08/11 04:57:32;;;;;;;13.52;4.43;;;;;;;25.78;48.35;99324.97;5047246;28;20045;-43
2021/08/11 05:00:00;;;;;;;11.70;4.10;;;;;;;25.85;48.25;99325.44;5039722;28;20099;-44
2021/08/11 05:02:27;;;;;;;20.00;4.55;;;;;;;25.83;48.27;99328.19;5053037;28;20049;-41
2021/08/11 05:04:53;;;;;;;11.75;3.97;;;;;;;25.83;48.02;99327.34;5051345;28;20458;-41
2021/08/11 05:07:20;;;;;;;17.63;4.40;;;;;;;25.91;48.15;99325.88;5047209;28;20041;-43
2021/08/11 05:09:47;;;;;;;14.02;4.75;;;;;;;25.90;48.34;99336.63;5051801;28;20094;-42
2021/08/11 05:12:14;;;;;;;22.27;4.55;;;;;;;25.91;48.16;99331.22;5053057;28;20453;-43
2021/08/11 05:14:40;;;;;;;14.93;4.53;;;;;;;25.74;48.33;99335.03;5053271;28;20045;-43
2021/08/11 05:17:08;;;;;;;11.80;4.10;;;;;;;25.60;48.23;99340.41;5051383;28;20067;-43
2021/08/11 05:19:35;;;;;;;14.57;4.97;;;;;;;25.67;48.29;99338.19;5052600;28;20510;-43
2021/08/11 05:22:02;;;;;;;13.60;4.57;;;;;;;25.73;48.14;99330.63;5049818;28;20491;-43
2021/08/11 05:24:29;;;;;;;13.65;4.95;;;;;;;25.77;47.96;99336.63;5052891;28;20087;-43
2021/08/11 05:26:56;;;;;;;14.48;6.03;;;;;;;25.73;48.20;99343.13;5053366;28;20059;-43
2021/08/11 05:29:23;;;;;;;17.10;5.80;;;;;;;25.76;48.20;99342.06;5052964;28;20545;-43
2021/08/11 05:31:50;;;;;;;15.27;5.85;;;;;;;25.82;48.00;99347.81;5052909;28;20091;-42
2021/08/11 05:34:18;;;;;;;18.30;6.20;;;;;;;25.78;48.14;99345.47;5051929;28;20098;-44
2021/08/11 05:36:44;;;;;;;16.05;5.78;;;;;;;25.68;48.46;99342.56;5052687;28;20495;-44
2021/08/11 05:39:11;;;;;;;14.00;5.35;;;;;;;25.74;48.17;99340.34;5052646;28;20049;-44
2021/08/11 05:41:38;;;;;;;16.27;5.47;;;;;;;25.76;48.03;99340.22;5046889;28;20049;-44
2021/08/11 05:44:05;;;;;;;10.13;4.85;;;;;;;25.69;47.89;99342.47;5052710;28;20403;-44
2021/08/11 05:46:32;;;;;;;10.88;5.20;;;;;;;25.54;48.28;99341.66;5052447;28;20656;-44
2021/08/11 05:48:59;;;;;;;13.50;5.00;;;;;;;25.65;48.13;99340.97;5052877;28;20045;-44
2021/08/11 05:51:28;;;;;;;8.80;4.40;;;;;;;25.60;48.09;99343.06;5045289;28;20049;-44
2021/08/11 05:53:55;;;;;;;11.30;4.65;;;;;;;25.58;48.34;99347.66;5032782;28;20051;-44
2021/08/11 05:56:22;;;;;;;11.43;4.63;;;;;;;25.49;48.38;99342.94;5032364;28;20613;-44
2021/08/11 05:58:48;;;;;;;10.13;4.82;;;;;;;25.33;48.87;99345.75;5032626;28;20049;-44
2021/08/11 06:01:15;;;;;;;12.88;4.70;;;;;;;25.21;48.98;99350.03;5032446;28;20131;-44
2021/08/11 06:03:42;;;;;;;12.45;4.50;;;;;;;25.38;48.95;99354.31;5032628;28;20092;-44
2021/08/11 06:06:10;;;;;;;8.18;4.05;;;;;;;25.41;48.72;99355.91;5046434;28;20270;-44
2021/08/11 06:08:38;;;;;;;10.90;4.25;;;;;;;25.53;48.35;99355.09;5040348;28;20446;-44
2021/08/11 06:11:04;;;;;;;7.45;4.00;;;;;;;25.60;48.31;99348.41;5045140;28;20450;-44
2021/08/11 06:13:31;;;;;;;9.45;4.25;;;;;;;25.66;48.18;99348.00;5039626;28;20106;-44
2021/08/11 06:15:58;;;;;;;9.85;4.53;;;;;;;25.69;48.17;99344.28;5043639;28;20045;-44
2021/08/11 06:18:25;;;;;;;7.30;4.20;;;;;;;25.73;47.86;99343.97;5045009;28;20041;-44
2021/08/11 06:20:52;;;;;;;11.45;4.05;;;;;;;25.81;47.88;99346.13;5045445;28;20053;-44
2021/08/11 06:23:20;;;;;;;10.18;4.45;;;;;;;25.86;47.69;99340.47;5042864;28;20551;-44
2021/08/11 06:25:48;;;;;;;12.32;4.40;;;;;;;25.89;47.61;99353.63;5051615;28;20534;-44
2021/08/11 06:28:14;;;;;;;7.65;4.00;;;;;;;25.85;47.84;99347.63;5035541;28;20049;-44
2021/08/11 06:30:41;;;;;;;8.00;3.97;;;;;;;25.91;47.73;99351.72;5038996;28;20041;-44
2021/08/11 06:33:08;;;;;;;9.88;4.15;;;;;;;25.90;47.82;99357.97;5048843;28;20056;-44
2021/08/11 06:35:34;;;;;;;9.15;4.43;;;;;;;25.92;48.06;99350.78;5050659;28;20040;-44
2021/08/11 06:38:01;;;;;;;8.82;3.95;;;;;;;25.97;47.79;99351.31;5049831;28;20049;-44
2021/08/11 06:40:28;;;;;;;8.77;4.22;;;;;;;25.99;47.72;99357.41;5049481;28;20106;-44
2021/08/11 06:42:58;;;;;;;10.68;4.40;;;;;;;25.92;48.06;99358.78;5051392;28;20047;-44
2021/08/11 06:45:24;;;;;;;14.23;4.80;;;;;;;25.72;48.59;99352.91;5051298;28;20040;-44
2021/08/11 06:47:51;;;;;;;8.75;4.53;;;;;;;25.78;48.50;99353.47;5048376;28;20162;-44
2021/08/11 06:50:18;;;;;;;8.40;3.90;;;;;;;25.77;48.59;99347.28;5051093;28;20095;-44
2021/08/11 06:52:44;;;;;;;10.75;4.70;;;;;;;25.70;49.47;99346.84;5051518;28;20037;-44
2021/08/11 06:55:12;;;;;;;9.57;4.43;;;;;;;25.71;49.64;99345.88;5051310;28;20075;-45
2021/08/11 06:57:39;;;;;;;9.55;4.30;;;;;;;25.70;50.22;99351.31;5051481;28;20568;-45
2021/08/11 07:00:09;;;;;;;13.23;4.82;;;;;;;25.76;49.92;99355.41;5051077;28;20049;-44
2021/08/11 07:02:35;;;;;;;13.25;5.00;;;;;;;25.78;49.66;99350.81;5051266;28;20090;-44
2021/08/11 07:05:02;;;;;;;10.07;4.60;;;;;;;25.83;49.48;99362.03;5051538;28;20049;-44
2021/08/11 07:07:30;;;;;;;9.73;4.43;;;;;;;25.87;49.64;99367.06;5049843;28;20091;-44
2021/08/11 07:09:56;;;;;;;12.95;4.22;;;;;;;25.92;49.52;99358.78;5050345;28;20051;-44
2021/08/11 07:12:23;;;;;;;11.02;4.45;;;;;;;25.97;49.12;99353.97;5051508;28;20115;-44
2021/08/11 07:14:50;;;;;;;9.82;4.20;;;;;;;25.92;49.53;99356.13;5051241;28;20053;-44
2021/08/11 07:17:18;;;;;;;10.25;4.72;;;;;;;25.78;49.85;99357.00;5051887;28;20105;-44
2021/08/11 07:19:45;;;;;;;9.77;4.50;;;;;;;25.71;49.94;99361.91;5051281;28;20057;-44
2021/08/11 07:22:12;;;;;;;8.40;4.40;;;;;;;25.67;50.00;99355.06;5051509;28;20453;-44
2021/08/11 07:24:38;;;;;;;13.85;4.70;;;;;;;25.71;50.00;99353.91;5051259;28;20087;-44
2021/08/11 07:27:05;;;;;;;11.02;4.15;;;;;;;25.71;50.10;99351.22;5051499;28;20114;-44
2021/08/11 07:29:32;;;;;;;10.38;4.55;;;;;;;25.73;49.93;99346.63;5051194;28;20053;-44
2021/08/11 07:31:59;;;;;;;9.90;4.50;;;;;;;25.77;50.08;99343.78;5051304;28;20048;-45
2021/08/11 07:34:27;;;;;;;9.73;4.35;;;;;;;25.82;49.89;99346.97;5050310;28;20087;-44
2021/08/11 07:36:54;;;;;;;10.25;4.13;;;;;;;25.89;50.07;99349.13;5050718;28;20446;-44
2021/08/11 07:39:20;;;;;;;10.95;4.57;;;;;;;25.91;49.95;99347.25;5052250;28;20049;-45
2021/08/11 07:41:47;;;;;;;10.05;4.30;;;;;;;25.95;49.76;99342.56;5054964;28;20093;-45
2021/08/11 07:44:14;;;;;;;8.45;3.95;;;;;;;26.04;49.58;99331.25;5054901;28;20049;-45
2021/08/11 07:46:40;;;;;;;9.60;4.50;;;;;;;26.07;49.58;99330.19;5054954;28;20053;-43
2021/08/11 07:49:07;;;;;;;9.13;4.35;;;;;;;26.09;49.61;99333.59;5047184;28;20053;-43
2021/08/11 07:51:35;;;;;;;9.02;4.07;;;;;;;26.15;49.23;99333.16;5047696;28;20049;-43
2021/08/11 07:54:02;;;;;;;9.60;4.60;;;;;;;26.22;49.51;99334.47;5035042;28;20041;-44
2021/08/11 07:56:28;;;;;;;8.65;4.10;;;;;;;26.32;49.08;99337.34;5054291;28;20098;-43
2021/08/11 07:58:55;;;;;;;12.48;4.60;;;;;;;26.34;49.08;99343.44;5051504;28;20049;-44
2021/08/11 08:01:22;;;;;;;11.32;4.88;;;;;;;26.33;49.56;99352.44;5052286;28;20495;-43
2021/08/11 08:03:49;;;;;;;12.63;5.43;;;;;;;26.21;49.51;99362.16;5053533;28;20094;-43
2021/08/11 08:06:16;;;;;;;13.35;5.43;;;;;;;26.20;49.67;99365.75;5054816;28;20120;-44
2021/08/11 08:08:44;;;;;;;11.15;4.93;;;;;;;26.30;49.44;99365.97;5054230;28;20483;-44
2021/08/11 08:11:11;;;;;;;12.73;5.57;;;;;;;26.18;50.14;99359.66;5053876;28;20564;-44
2021/08/11 08:13:37;;;;;;;11.75;5.60;;;;;;;26.10;50.35;99368.22;5054482;28;20095;-43
2021/08/11 08:16:05;;;;;;;9.95;5.72;;;;;;;26.16;50.33;99371.44;5053970;28;20487;-43
2021/08/11 08:18:31;;;;;;;10.52;5.65;;;;;;;26.03;50.55;99374.91;5053876;28;20087;-43
2021/08/11 08:20:58;;;;;;;9.07;5.32;;;;;;;26.23;50.12;99375.38;5054381;28;20049;-44
2021/08/11 08:23:25;;;;;;;12.75;5.90;;;;;;;26.23;50.34;99370.03;5054215;28;20059;-44
2021/08/11 08:25:53;;;;;;;10.13;5.22;;;;;;;26.32;50.16;99362.22;5054360;28;20076;-44
2021/08/11 08:28:20;;;;;;;12.30;4.90;;;;;;;26.47;49.31;99354.97;5054450;28;20045;-44
2021/08/11 08:30:47;;;;;;;11.63;4.95;;;;;;;26.56;49.31;99357.97;5053862;28;20110;-44
2021/08/11 08:33:14;;;;;;;10.32;5.28;;;;;;;26.58;48.96;99351.56;5053733;28;20080;-43
2021/08/11 08:35:40;;;;;;;12.60;5.18;;;;;;;26.39;50.17;99346.66;5054193;28;20114;-43
2021/08/11 08:38:07;;;;;;;11.25;5.28;;;;;;;26.47;49.76;99335.44;5054093;28;20111;-43
2021/08/11 08:40:35;;;;;;;10.20;5.03;;;;;;;26.49;49.63;99342.38;5053502;28;20053;-43
2021/08/11 08:43:04;;;;;;;11.80;5.28;;;;;;;26.47;49.52;99322.91;5053530;28;20084;-43
2021/08/11 08:45:31;;;;;;;11.35;4.90;;;;;;;26.57;49.16;99322.28;5053709;28;20045;-43
2021/08/11 08:47:57;;;;;;;10.13;4.90;;;;;;;26.56;49.14;99318.75;5053718;28;20107;-43
2021/08/11 08:50:24;;;;;;;10.75;5.18;;;;;;;26.56;49.16;99321.44;5041445;28;20504;-43
2021/08/11 08:52:51;;;;;;;12.60;5.25;;;;;;;26.65;49.01;99328.78;5051747;28;20044;-44
2021/08/11 08:55:18;;;;;;;11.82;5.88;;;;;;;26.60;49.29;99332.75;5043900;28;20049;-44
2021/08/11 08:57:44;;;;;;;12.13;5.00;;;;;;;26.56;49.49;99329.44;5033709;28;20046;-44
2021/08/11 09:00:14;;;;;;;12.43;5.00;;;;;;;26.63;49.10;99328.06;5033595;28;20107;-44
2021/08/11 09:02:41;;;;;;;11.50;5.00;;;;;;;26.70;49.06;99329.34;5033019;28;20103;-44
2021/08/11 09:05:08;;;;;;;10.45;5.10;;;;;;;26.70;49.07;99328.50;5033666;28;20096;-44
2021/08/11 09:07:35;;;;;;;12.82;5.93;;;;;;;26.62;49.82;99328.16;5046487;28;20049;-44
2021/08/11 09:10:12;;;;;;;14.00;5.35;;;;;;;26.60;49.99;99317.59;5048136;28;20046;-44
2021/08/11 09:12:44;;;;;;;14.10;5.40;;;;;;;26.66;49.57;99322.50;5046294;28;20522;-44
2021/08/11 09:15:28;;;;;;;9.82;4.90;;;;;;;26.71;49.05;99309.69;5053766;28;20044;-44
2021/08/11 09:17:55;;;;;;;13.65;5.03;;;;;;;26.78;48.87;99299.38;5047425;28;20045;-44
2021/08/11 09:20:23;;;;;;;10.60;5.20;;;;;;;26.83;48.62;99291.91;5053360;28;20041;-44
2021/08/11 09:22:51;;;;;;;11.30;5.35;;;;;;;26.86;48.66;99293.47;5053159;28;20118;-44
2021/08/11 09:25:18;;;;;;;13.38;5.30;;;;;;;26.85;48.96;99292.63;5052779;28;20048;-44
2021/08/11 09:27:45;;;;;;;10.90;5.35;;;;;;;26.89;48.66;99301.28;5052819;28;20045;-44
2021/08/11 09:30:14;;;;;;;10.38;5.22;;;;;;;26.96;48.22;99305.19;5052745;28;20506;-44
2021/08/11 09:32:49;;;;;;;8.43;4.57;;;;;;;27.03;47.93;99305.63;5052869;28;20048;-44
2021/08/11 09:35:15;;;;;;;11.00;5.22;;;;;;;27.04;47.21;99300.16;5051466;28;20049;-44
2021/08/11 09:37:43;;;;;;;11.30;5.40;;;;;;;27.08;47.53;99306.13;5042870;28;20499;-44
2021/08/11 09:40:12;;;;;;;9.88;5.07;;;;;;;27.13;46.83;99301.31;5046712;28;20053;-44
2021/08/11 09:42:38;;;;;;;8.57;4.40;;;;;;;27.19;47.12;99305.34;5040725;28;20049;-45
2021/08/11 09:45:08;;;;;;;12.70;4.90;;;;;;;27.23;47.35;99304.16;5036043;28;20557;-44
2021/08/11 09:47:36;;;;;;;7.82;4.55;;;;;;;27.22;46.66;99307.78;5037139;28;20050;-44
2021/08/11 09:50:04;;;;;;;8.77;4.68;;;;;;;27.24;45.24;99297.84;5036641;28;20038;-44
2021/08/11 09:52:46;;;;;;;9.10;4.70;;;;;;;27.28;45.54;99302.88;5037758;28;20103;-44
2021/08/11 09:55:13;;;;;;;8.88;4.65;;;;;;;27.30;45.67;99302.78;5038579;28;20418;-44
2021/08/11 09:57:39;;;;;;;9.98;4.80;;;;;;;27.28;44.61;99300.19;5038960;28;20053;-44
2021/08/11 10:00:07;;;;;;;10.77;5.03;;;;;;;27.28;45.47;99297.53;5043150;28;20052;-44
2021/08/11 10:02:37;;;;;;;10.35;4.63;;;;;;;27.28;45.70;99294.84;5039563;28;20046;-45
2021/08/11 10:05:05;;;;;;;8.57;4.70;;;;;;;27.34;45.62;99292.69;5042539;28;20045;-44
2021/08/11 10:07:32;;;;;;;9.35;4.50;;;;;;;27.34;45.37;99287.34;5048281;28;20113;-44
2021/08/11 10:10:02;;;;;;;13.85;5.03;;;;;;;27.41;45.59;99285.91;5051644;28;20106;-44
2021/08/11 10:12:29;;;;;;;10.20;4.75;;;;;;;27.45;45.27;99287.38;5051739;28;20056;-44
2021/08/11 10:14:57;;;;;;;9.77;4.80;;;;;;;27.45;45.66;99282.91;5052065;28;20037;-45
2021/08/11 10:17:24;;;;;;;9.43;4.93;;;;;;;27.46;45.40;99286.41;5051909;28;20048;-44
2021/08/11 10:19:51;;;;;;;9.10;4.78;;;;;;;27.50;45.52;99293.25;5051861;28;20041;-44
2021/08/11 10:22:20;;;;;;;10.48;4.85;;;;;;;27.55;45.27;99288.41;5052030;28;20091;-44
2021/08/11 10:24:47;;;;;;;9.55;4.55;;;;;;;27.59;44.94;99281.84;5051972;28;20127;-44
2021/08/11 10:27:16;;;;;;;11.75;5.07;;;;;;;27.60;44.15;99283.53;5051577;28;20522;-44
2021/08/11 10:29:43;;;;;;;12.88;5.60;;;;;;;27.58;42.47;99282.81;5051578;28;20045;-45
2021/08/11 10:32:10;;;;;;;9.90;5.60;;;;;;;27.58;43.71;99293.50;5051314;28;20511;-44
2021/08/11 10:34:36;;;;;;;11.40;5.70;;;;;;;27.63;43.40;99291.34;5051509;28;20102;-44
2021/08/11 10:37:04;;;;;;;13.73;6.05;;;;;;;27.64;43.90;99278.81;5051843;28;20076;-44
2021/08/11 10:39:32;;;;;;;12.13;5.90;;;;;;;27.64;43.57;99276.13;5047083;28;20056;-44
2021/08/11 10:42:01;;;;;;;12.27;5.78;;;;;;;27.65;44.53;99280.53;5051549;28;20056;-44
2021/08/11 10:44:28;;;;;;;13.43;6.25;;;;;;;27.68;43.45;99272.25;5051855;28;20076;-44
2021/08/11 10:46:55;;;;;;;13.35;6.30;;;;;;;27.68;44.00;99266.88;5051827;28;20107;-44
2021/08/11 10:49:24;;;;;;;13.27;6.03;;;;;;;27.70;44.25;99264.94;5047105;28;20041;-45
2021/08/11 10:51:51;;;;;;;12.75;6.05;;;;;;;27.73;44.32;99263.88;5044431;28;20514;-44
2021/08/11 10:54:18;;;;;;;14.13;6.22;;;;;;;27.74;44.46;99254.88;5040912;28;20114;-44
2021/08/11 10:56:47;;;;;;;12.20;5.95;;;;;;;27.73;44.22;99243.31;5042286;28;20045;-44
2021/08/11 10:59:47;;;;;;;15.15;7.18;;;;;;;27.76;43.86;99239.53;5037166;28;20487;-44
2021/08/11 11:02:49;;;;;;;18.35;7.03;;;;;;;27.82;43.78;99241.72;5040946;28;20095;-44
2021/08/11 11:05:55;;;;;;;15.93;7.53;;;;;;;27.79;43.80;99248.19;5034660;28;20124;-44
2021/08/11 11:08:43;;;;;;;16.60;7.72;;;;;;;27.79;43.45;99247.34;5031190;28;20174;-44
2021/08/11 11:11:35;;;;;;;22.27;8.90;;;;;;;27.79;42.93;99247.34;5043547;28;20045;-44
2021/08/11 11:14:07;;;;;;;21.65;9.63;;;;;;;27.74;43.69;99233.44;5046771;28;20045;-44
2021/08/11 11:17:10;;;;;;;18.75;8.93;;;;;;;27.74;43.80;99233.44;5055015;28;20132;-44
2021/08/11 11:20:32;;;;;;;18.30;9.00;;;;;;;27.69;44.39;99221.28;5055177;28;20045;-44
2021/08/11 11:23:02;;;;;;;20.33;8.52;;;;;;;27.63;44.34;99221.75;5055234;28;20072;-44
2021/08/11 11:26:09;;;;;;;17.90;8.68;;;;;;;27.61;44.66;99229.06;5051737;28;20049;-44
2021/08/11 11:28:59;;;;;;;18.73;8.68;;;;;;;27.61;44.39;99247.78;5053528;28;20059;-44
2021/08/11 11:31:31;;;;;;;17.92;8.80;;;;;;;27.58;43.37;99250.69;5055281;28;20056;-44
2021/08/11 11:34:25;;;;;;;16.88;7.68;;;;;;;27.50;42.78;99267.31;5043099;28;20190;-44
2021/08/11 11:37:29;;;;;;;12.80;6.32;;;;;;;27.48;41.67;99255.88;5054990;28;20040;-44